Site contains unofficial IBTrACS data. Visit the IBTrACS Website to access archived data.

1891 NOT_NAMED (1891197N14129)


IBTrACS version v04r00. Visit IBTrACS website for data access.
Please direct all questions to the IBTrACS Q and A forum

Storm track - Intensity - Wind Radii - Intensity Data - Source Data - All data

Summary Information

Storm ID 1891197N14129
Start Jul 15 16Z
Landfall Jul 19 00Z
End Jul 20 04Z
ATCF IDs
Track status Best track data.

Storm track plot

Map of storm track

Intensity plots

No Intensity information for this storm


Radial wind information

No radial wind information for this storm


Position and Intensity Table

BASIN ISO_TIME_________ NATURE LAT LON
degrees north degrees east
WP 1891-07-15 16:00:00 NR 14.00 129.00
WP 18:00:00 NR 14.44 128.22
WP 21:00:00 NR 15.08 127.10
WP 1891-07-16 00:00:00 NR 15.66 126.08
WP 03:00:00 NR 16.16 125.23
WP 04:00:00 NR 16.30 125.00
WP 06:00:00 NR 16.54 124.62
WP 09:00:00 NR 16.84 124.23
WP 12:00:00 NR 17.08 123.98
WP 15:00:00 NR 17.32 123.77
WP 16:00:00 NR 17.40 123.70
WP 18:00:00 NR 17.60 123.51
WP 21:00:00 NR 17.92 123.24
WP 1891-07-17 00:00:00 NR 18.25 122.96
WP 03:00:00 NR 18.59 122.63
WP 04:00:00 NR 18.70 122.50
WP 06:00:00 NR 18.94 122.22
WP 09:00:00 NR 19.30 121.75
WP 12:00:00 NR 19.66 121.23
WP 15:00:00 NR 20.00 120.69
WP 16:00:00 NR 20.10 120.50
WP 18:00:00 NR 20.29 120.14
WP 21:00:00 NR 20.55 119.58
WP 1891-07-18 00:00:00 NR 20.80 119.01
WP 03:00:00 NR 21.02 118.41
WP 04:00:00 NR 21.10 118.20
WP 06:00:00 NR 21.26 117.78
WP 09:00:00 NR 21.49 117.13
WP 12:00:00 NR 21.71 116.47
WP 15:00:00 NR 21.93 115.82
WP 16:00:00 NR 22.00 115.60
WP 18:00:00 NR 22.14 115.20
WP 21:00:00 NR 22.35 114.60
WP 1891-07-19 00:00:00 NR 22.54 113.99
WP 03:00:00 NR 22.74 113.33
WP 04:00:00 NR 22.80 113.10
WP 06:00:00 NR 22.93 112.60
WP 09:00:00 NR 23.12 111.80
WP 12:00:00 NR 23.30 110.96
WP 15:00:00 NR 23.45 110.09
WP 16:00:00 NR 23.50 109.80
WP 18:00:00 NR 23.59 109.22
WP 21:00:00 NR 23.70 108.34
WP 1891-07-20 00:00:00 NR 23.79 107.47
WP 03:00:00 NR 23.87 106.59
WP 04:00:00 NR 23.90 106.30

Source Information

Agency Information
USA
TOKYO
CMA
HKO
NEWDELHI
REUNION
BOM
NADI
WELLINGTON
DS824
TD9636 cons_worldwide_trop_cyclone_18710101-19891231-003:Line=833
TD9635
NEUMANN
MLC

All available IBTrACS Data

SEASON BASIN SUBBASIN ISO_TIME_________ NATURE LAT LON DIST2LAND LANDFALL IFLAG USA SSHS TD9636 LAT TD9636 LON TD9636 STAGE STORM SPEED STORM DIR
Year degrees north degrees east km km 1 degrees north degrees east kts degrees
1891 WP MM 1891-07-15 16:00:00 NR 14.00 129.00 429 382 __________O___ -1 14.00 129.00 4 26 300
1891 WP MM 18:00:00 NR 14.44 128.22 382 320 __________P___ -1 14.44 128.22 4 26 300
1891 WP MM 21:00:00 NR 15.08 127.10 320 263 __________P___ -1 15.08 127.10 4 24 300
1891 WP MM 1891-07-16 00:00:00 NR 15.66 126.08 271 253 __________P___ -1 15.66 126.08 4 21 301
1891 WP MM 03:00:00 NR 16.16 125.23 264 260 __________P___ -1 16.16 125.23 4 18 302
1891 WP MM 04:00:00 NR 16.30 125.00 268 228 __________O___ -1 16.30 125.00 4 14 304
1891 WP MM 06:00:00 NR 16.54 124.62 228 181 __________P___ -1 16.54 124.62 4 11 306
1891 WP MM 09:00:00 NR 16.84 124.23 181 159 __________P___ -1 16.84 124.23 4 8 311
1891 WP MM 12:00:00 NR 17.08 123.98 159 139 __________P___ -1 17.08 123.98 4 7 317
1891 WP MM 15:00:00 NR 17.32 123.77 142 131 __________P___ -1 17.32 123.77 4 6 321
1891 WP MM 16:00:00 NR 17.40 123.70 135 121 __________O___ -1 17.40 123.70 4 8 320
1891 WP MM 18:00:00 NR 17.60 123.51 121 105 __________P___ -1 17.60 123.51 4 8 320
1891 WP MM 21:00:00 NR 17.92 123.24 105 74 __________P___ -1 17.92 123.24 4 8 321
1891 WP MM 1891-07-17 00:00:00 NR 18.25 122.96 74 38 __________P___ -1 18.25 122.96 4 9 319
1891 WP MM 03:00:00 NR 18.59 122.63 38 38 __________P___ -1 18.59 122.63 4 9 316
1891 WP MM 04:00:00 NR 18.70 122.50 39 39 __________O___ -1 18.70 122.50 4 10 313
1891 WP MM 06:00:00 NR 18.94 122.22 55 67 __________P___ -1 18.94 122.22 4 11 310
1891 WP MM 09:00:00 NR 19.30 121.75 98 94 __________P___ -1 19.30 121.75 4 12 308
1891 WP MM 12:00:00 NR 19.66 121.23 127 124 __________P___ -1 19.66 121.23 4 12 305
1891 WP MM 15:00:00 NR 20.00 120.69 156 156 __________P___ -1 20.00 120.69 4 12 303
1891 WP MM 16:00:00 NR 20.10 120.50 170 170 __________O___ -1 20.10 120.50 4 12 300
1891 WP MM 18:00:00 NR 20.29 120.14 189 182 __________P___ -1 20.29 120.14 4 12 298
1891 WP MM 21:00:00 NR 20.55 119.58 184 184 __________P___ -1 20.55 119.58 4 12 295
1891 WP MM 1891-07-18 00:00:00 NR 20.80 119.01 214 214 __________P___ -1 20.80 119.01 4 12 293
1891 WP MM 03:00:00 NR 21.02 118.41 258 258 __________P___ -1 21.02 118.41 4 12 292
1891 WP MM 04:00:00 NR 21.10 118.20 266 223 __________O___ -1 21.10 118.20 4 13 292
1891 WP MM 06:00:00 NR 21.26 117.78 223 168 __________P___ -1 21.26 117.78 4 13 291
1891 WP MM 09:00:00 NR 21.49 117.13 168 129 __________P___ -1 21.49 117.13 4 13 291
1891 WP MM 12:00:00 NR 21.71 116.47 129 89 __________P___ -1 21.71 116.47 4 13 290
1891 WP MM 15:00:00 NR 21.93 115.82 89 78 __________P___ -1 21.93 115.82 4 13 289
1891 WP MM 16:00:00 NR 22.00 115.60 78 54 __________O___ -1 22.00 115.60 4 12 290
1891 WP MM 18:00:00 NR 22.14 115.20 54 22 __________P___ -1 22.14 115.20 4 12 290
1891 WP MM 21:00:00 NR 22.35 114.60 22 0 __________P___ -1 22.35 114.60 4 12 290
1891 WP MM 1891-07-19 00:00:00 NR 22.54 113.99 0 0 __________P___ -1 22.54 113.99 4 12 288
1891 WP MM 03:00:00 NR 22.74 113.33 0 0 __________P___ -1 22.74 113.33 4 13 287
1891 WP MM 04:00:00 NR 22.80 113.10 0 0 __________O___ -1 22.80 113.10 4 14 286
1891 WP MM 06:00:00 NR 22.93 112.60 0 0 __________P___ -1 22.93 112.60 4 15 285
1891 WP MM 09:00:00 NR 23.12 111.80 0 0 __________P___ -1 23.12 111.80 4 16 284
1891 WP MM 12:00:00 NR 23.30 110.96 0 0 __________P___ -1 23.30 110.96 4 16 282
1891 WP MM 15:00:00 NR 23.45 110.09 0 0 __________P___ -1 23.45 110.09 4 16 281
1891 WP MM 16:00:00 NR 23.50 109.80 0 0 __________O___ -1 23.50 109.80 4 16 279
1891 WP MM 18:00:00 NR 23.59 109.22 0 0 __________P___ -1 23.59 109.22 4 16 278
1891 WP MM 21:00:00 NR 23.70 108.34 0 0 __________P___ -1 23.70 108.34 4 16 277
1891 WP MM 1891-07-20 00:00:00 NR 23.79 107.47 0 0 __________P___ -1 23.79 107.47 4 16 276
1891 WP MM 03:00:00 NR 23.87 106.59 0 0 __________P___ -1 23.87 106.59 4 16 276
1891 WP MM 04:00:00 NR 23.90 106.30 0 __________O___ -1 23.90 106.30 4 16 275